createdAt,value
2023-04-15T00:03:34.726Z,3.00
2023-04-15T00:08:37.929Z,1.00
2023-04-15T00:13:42.645Z,0.50
2023-04-15T00:18:45.867Z,2.00
2023-04-15T00:23:52.470Z,1.00
2023-04-15T00:28:56.770Z,2.50
2023-04-15T00:33:59.707Z,2.00
2023-04-15T00:39:03.203Z,1.25
2023-04-15T00:44:07.834Z,1.00
2023-04-15T00:49:11.236Z,0.50
2023-04-15T00:54:14.623Z,1.00
2023-04-15T00:59:19.574Z,1.25
2023-04-15T01:04:22.436Z,0.00
2023-04-15T01:09:25.612Z,1.00
2023-04-15T01:14:30.184Z,1.00
2023-04-15T01:19:33.165Z,0.50
2023-04-15T01:24:38.306Z,0.50
2023-04-15T01:29:43.050Z,0.25
2023-04-15T01:34:46.108Z,1.00
2023-04-15T01:39:48.873Z,0.00
2023-04-15T01:44:53.650Z,0.00
2023-04-15T01:49:56.761Z,0.75
2023-04-15T01:54:59.497Z,0.00
2023-04-15T02:00:03.751Z,0.75
2023-04-15T02:05:16.294Z,0.00
2023-04-15T02:10:23.297Z,0.75
2023-04-15T02:15:27.699Z,0.00
2023-04-15T02:20:32.039Z,0.25
2023-04-15T02:25:34.833Z,1.00
2023-04-15T02:30:41.939Z,0.75
2023-04-15T02:35:45.424Z,0.25
2023-04-15T02:40:49.609Z,1.00
2023-04-15T02:45:53.829Z,0.00
2023-04-15T02:51:12.452Z,1.00
2023-04-15T02:56:16.982Z,0.75
2023-04-15T03:01:21.237Z,0.25
2023-04-15T03:06:24.686Z,0.50
2023-04-15T03:11:28.164Z,0.00
2023-04-15T03:16:32.268Z,1.00
2023-04-15T03:21:35.095Z,0.75
2023-04-15T03:26:37.919Z,0.00
2023-04-15T03:31:48.330Z,0.00
2023-04-15T03:36:52.489Z,0.25
2023-04-15T03:41:55.268Z,0.00
2023-04-15T03:46:59.468Z,0.00
2023-04-15T03:52:02.227Z,0.00
2023-04-15T03:57:05.203Z,0.00
2023-04-15T04:02:09.445Z,0.00
2023-04-15T04:07:16.682Z,0.00
2023-04-15T04:12:19.413Z,0.00
2023-04-15T04:17:23.646Z,0.00
2023-04-15T04:22:26.975Z,0.00
2023-04-15T04:27:30.000Z,0.50
2023-04-15T04:32:34.133Z,0.00
2023-04-15T04:37:36.910Z,0.00
2023-04-15T04:42:40.252Z,0.00
2023-04-15T04:47:44.470Z,0.00
2023-04-15T04:52:47.211Z,0.00
2023-04-15T04:57:50.090Z,0.00
2023-04-15T05:02:54.406Z,0.00
2023-04-15T05:07:57.195Z,0.00
2023-04-15T05:13:00.325Z,0.00
2023-04-15T05:18:04.570Z,0.00
2023-04-15T05:23:07.384Z,0.00
2023-04-15T05:28:10.089Z,1.00
2023-04-15T05:33:14.254Z,0.00
2023-04-15T05:38:16.992Z,0.00
2023-04-15T05:43:19.761Z,0.00
2023-04-15T05:48:24.202Z,0.00
2023-04-15T05:53:26.949Z,0.75
2023-04-15T05:58:29.693Z,1.00
2023-04-15T06:03:34.473Z,0.00
2023-04-15T06:08:37.466Z,0.00
2023-04-15T06:13:40.534Z,0.25
2023-04-15T06:18:44.609Z,0.00
2023-04-15T06:23:47.514Z,0.25
2023-04-15T06:28:50.546Z,0.00
2023-04-15T06:33:54.582Z,0.25
2023-04-15T06:38:57.600Z,1.00
2023-04-15T06:44:00.321Z,0.00
2023-04-15T06:49:05.339Z,0.00
2023-04-15T06:54:08.106Z,0.00
2023-04-15T06:59:10.838Z,0.00
2023-04-15T07:04:14.955Z,1.00
2023-04-15T07:09:18.121Z,0.50
2023-04-15T07:14:20.891Z,1.00
2023-04-15T07:19:25.137Z,3.00
2023-04-15T07:24:27.989Z,0.50
2023-04-15T07:29:31.408Z,2.00
2023-04-15T07:34:35.536Z,2.50
2023-04-15T07:39:38.301Z,2.00
2023-04-15T07:44:41.160Z,2.50
2023-04-15T07:49:45.579Z,1.00
2023-04-15T07:54:48.458Z,1.00
2023-04-15T07:59:51.184Z,2.50
2023-04-15T08:04:55.375Z,0.00
2023-04-15T08:11:51.313Z,1.50
2023-04-15T08:16:54.124Z,0.75
2023-04-15T08:21:57.596Z,0.00
2023-04-15T08:27:04.428Z,0.00
2023-04-15T08:32:08.064Z,1.25
2023-04-15T08:37:11.520Z,1.00
2023-04-15T08:42:18.511Z,0.50
2023-04-15T08:47:23.560Z,1.00
2023-04-15T08:52:27.527Z,1.00
2023-04-15T08:57:32.699Z,1.00
2023-04-15T09:02:35.963Z,0.00
2023-04-15T09:07:38.864Z,1.00
2023-04-15T09:12:43.018Z,0.50
2023-04-15T09:17:46.507Z,1.00
2023-04-15T09:22:50.503Z,0.25
2023-04-15T09:27:55.859Z,1.00
2023-04-15T09:33:00.677Z,3.00
2023-04-15T09:38:05.315Z,2.00
2023-04-15T09:43:12.918Z,3.25
2023-04-15T09:48:18.703Z,1.75
2023-04-15T09:53:22.936Z,2.25
2023-04-15T09:58:28.429Z,2.25
2023-04-15T10:03:33.328Z,3.25
2023-04-15T10:08:36.135Z,4.00
2023-04-15T10:19:10.685Z,3.25
2023-04-15T10:24:14.520Z,5.75
2023-04-15T10:34:36.693Z,4.50
2023-04-15T10:39:41.636Z,4.50
2023-04-15T10:44:46.286Z,6.50
2023-04-15T10:49:52.433Z,10.50
2023-04-15T10:55:05.363Z,10.25
2023-04-15T11:00:13.809Z,9.25
2023-04-15T11:05:20.668Z,6.50
2023-04-15T11:10:57.066Z,8.00
2023-04-15T11:16:02.165Z,8.00
2023-04-15T11:21:09.635Z,6.00
2023-04-15T11:26:12.880Z,7.75
2023-04-15T11:31:19.900Z,8.00
2023-04-15T11:36:26.477Z,7.25
2023-04-15T11:41:29.380Z,8.00
2023-04-15T11:46:32.630Z,8.00
2023-04-15T11:51:37.049Z,8.25
2023-04-15T11:56:39.909Z,5.00
2023-04-15T12:01:50.296Z,10.25
2023-04-15T12:06:54.455Z,8.00
2023-04-15T12:11:59.206Z,6.50
2023-04-15T12:17:04.792Z,4.25
2023-04-15T12:22:12.255Z,5.25
2023-04-15T12:27:16.508Z,5.75
2023-04-15T12:32:21.847Z,6.00
2023-04-15T12:37:26.202Z,6.25
2023-04-15T12:42:28.902Z,6.50
2023-04-15T12:47:31.878Z,5.75
2023-04-15T12:52:36.087Z,5.00
2023-04-15T12:57:39.695Z,5.25
2023-04-15T13:02:45.322Z,6.00
2023-04-15T13:07:49.558Z,5.00
2023-04-15T13:14:55.376Z,7.25
2023-04-15T13:19:58.221Z,6.00
2023-04-15T13:25:00.936Z,5.00
2023-04-15T13:30:05.567Z,5.25
2023-04-15T13:35:09.402Z,5.00
2023-04-15T13:40:12.758Z,4.00
2023-04-15T13:45:16.883Z,5.25
2023-04-15T13:50:19.658Z,6.50
2023-04-15T13:55:24.557Z,6.50
2023-04-15T14:00:30.322Z,3.00
2023-04-15T14:05:33.451Z,5.00
2023-04-15T14:10:36.644Z,6.50
2023-04-15T14:15:40.926Z,6.00
2023-04-15T14:20:43.704Z,5.00
2023-04-15T14:25:48.352Z,5.25
2023-04-15T14:30:53.406Z,4.00
2023-04-15T14:35:56.421Z,5.75
2023-04-15T14:40:59.755Z,5.50
2023-04-15T14:46:03.956Z,5.00
2023-04-15T14:51:07.219Z,4.25
2023-04-15T14:56:09.952Z,6.00
2023-04-15T15:01:14.151Z,6.00
2023-04-15T15:06:17.035Z,6.00
2023-04-15T15:11:19.852Z,6.00
2023-04-15T15:16:24.061Z,5.00
2023-04-15T15:21:27.670Z,4.75
2023-04-15T15:26:30.483Z,6.00
2023-04-15T15:31:35.951Z,6.50
2023-04-15T15:36:38.898Z,4.50
2023-04-15T15:41:41.687Z,8.75
2023-04-15T15:46:46.171Z,7.75
2023-04-15T15:51:49.898Z,5.25
2023-04-15T15:56:52.748Z,5.00
2023-04-15T16:01:57.051Z,66.00
2023-04-15T16:06:59.902Z,96.60
2023-04-15T16:12:03.677Z,162.40
2023-04-15T16:17:07.782Z,215.60
2023-04-15T16:22:10.591Z,238.67
2023-04-15T16:27:16.078Z,196.40
2023-04-15T16:32:20.368Z,141.00
2023-04-15T16:37:23.257Z,137.80
2023-04-15T16:42:26.204Z,114.00
2023-04-15T16:47:30.578Z,107.20
2023-04-15T16:52:33.941Z,108.60
2023-04-15T16:57:36.682Z,88.20
2023-04-15T17:03:01.531Z,86.80
2023-04-15T17:08:05.391Z,85.00
2023-04-15T17:13:08.320Z,74.60
2023-04-15T17:18:12.818Z,79.40
2023-04-15T17:23:15.900Z,72.00
2023-04-15T17:28:18.975Z,65.60
2023-04-15T17:33:53.260Z,63.20
2023-04-15T17:38:46.042Z,59.20
2023-04-15T17:43:48.899Z,59.80
2023-04-15T17:48:53.210Z,55.00
2023-04-15T17:53:56.091Z,53.60
2023-04-15T17:59:00.400Z,55.80
2023-04-15T18:04:04.955Z,55.00
2023-04-15T18:09:09.180Z,53.00
2023-04-15T18:14:13.950Z,55.60
2023-04-15T18:19:21.676Z,53.40
2023-04-15T18:24:24.414Z,53.00
2023-04-15T18:29:27.299Z,52.80
2023-04-15T18:34:31.623Z,53.40
2023-04-15T18:39:34.360Z,53.40
2023-04-15T18:44:37.244Z,51.20
2023-04-15T18:49:41.455Z,49.00
2023-04-15T18:54:44.255Z,49.60
2023-04-15T18:59:47.127Z,49.40
2023-04-15T19:04:51.247Z,47.80
2023-04-15T19:11:25.073Z,48.00
2023-04-15T19:16:27.917Z,47.80
2023-04-15T19:21:31.595Z,45.80
2023-04-15T19:26:37.143Z,48.80
2023-04-15T19:31:40.064Z,43.80
